createdAt,value
2023-09-30T00:01:33.003Z,100034.60
2023-09-30T00:04:02.428Z,100041.91
2023-09-30T00:06:30.754Z,100044.34
2023-09-30T00:08:58.635Z,100034.27
2023-09-30T00:11:26.407Z,100041.01
2023-09-30T00:13:54.664Z,100041.08
2023-09-30T00:16:22.500Z,100042.89
2023-09-30T00:18:50.421Z,100036.38
2023-09-30T00:21:18.198Z,100039.80
2023-09-30T00:23:45.950Z,100037.48
2023-09-30T00:26:15.226Z,100038.90
2023-09-30T00:28:44.021Z,100038.82
2023-09-30T00:31:11.924Z,100039.98
2023-09-30T00:33:39.943Z,100037.59
2023-09-30T00:36:10.092Z,100037.12
2023-09-30T00:38:38.225Z,100029.66
2023-09-30T00:41:05.921Z,100032.52
2023-09-30T00:43:34.498Z,100029.02
2023-09-30T00:46:18.327Z,100030.59
2023-09-30T00:48:46.600Z,100031.06
2023-09-30T00:51:15.090Z,100025.52
2023-09-30T00:53:43.365Z,100029.06
2023-09-30T00:56:11.881Z,100030.48
2023-09-30T00:58:40.356Z,100029.02
2023-09-30T01:01:08.809Z,100027.67
2023-09-30T01:03:38.340Z,100020.69
2023-09-30T01:06:06.994Z,100020.20
2023-09-30T01:08:35.477Z,100021.61
2023-09-30T01:11:03.435Z,100024.52
2023-09-30T01:13:38.435Z,100023.79
2023-09-30T01:16:11.051Z,100028.21
2023-09-30T01:18:42.024Z,100025.25
2023-09-30T01:21:10.757Z,100022.35
2023-09-30T01:23:38.862Z,100022.56
2023-09-30T01:26:13.380Z,100018.83
2023-09-30T01:28:42.062Z,100017.70
2023-09-30T01:31:11.041Z,100018.01
2023-09-30T01:33:39.504Z,100025.45
2023-09-30T01:36:07.661Z,100018.85
2023-09-30T01:38:35.694Z,100013.13
2023-09-30T01:41:03.503Z,100008.84
2023-09-30T01:43:31.454Z,100003.02
2023-09-30T01:45:59.783Z,99994.31
2023-09-30T01:48:27.860Z,99988.43
2023-09-30T01:50:55.592Z,99988.73
2023-09-30T01:53:23.314Z,99987.23
2023-09-30T01:55:51.083Z,99984.92
2023-09-30T01:58:18.902Z,99977.00
2023-09-30T02:00:47.355Z,99986.14
2023-09-30T02:03:15.415Z,99990.89
2023-09-30T02:05:44.666Z,99989.02
2023-09-30T02:08:14.788Z,99988.39
2023-09-30T02:10:42.708Z,99981.90
2023-09-30T02:13:10.768Z,99984.53
2023-09-30T02:15:42.670Z,99985.11
2023-09-30T02:18:11.274Z,99981.98
2023-09-30T02:20:40.753Z,99983.65
2023-09-30T02:23:12.033Z,99981.05
2023-09-30T02:25:40.481Z,99984.64
2023-09-30T02:28:08.273Z,99983.70
2023-09-30T02:30:36.884Z,99979.97
2023-09-30T02:33:06.097Z,99982.90
2023-09-30T02:35:33.941Z,99985.44
2023-09-30T02:38:01.788Z,99984.73
2023-09-30T02:40:29.574Z,99987.49
2023-09-30T02:42:57.305Z,99998.81
2023-09-30T02:45:26.205Z,99999.75
2023-09-30T02:47:54.142Z,99999.18
2023-09-30T02:50:22.586Z,99996.30
2023-09-30T02:52:51.124Z,99997.94
2023-09-30T02:55:18.986Z,99994.52
2023-09-30T02:57:47.609Z,99991.17
2023-09-30T03:00:25.331Z,99987.91
2023-09-30T03:02:55.273Z,99994.06
2023-09-30T03:05:25.048Z,99992.63
2023-09-30T03:07:52.894Z,99991.52
2023-09-30T03:10:27.816Z,99992.15
2023-09-30T03:12:55.703Z,99989.59
2023-09-30T03:15:24.558Z,99982.77
2023-09-30T03:17:54.022Z,99985.10
2023-09-30T03:20:22.903Z,99980.18
2023-09-30T03:22:50.716Z,99978.17
2023-09-30T03:25:21.493Z,99976.42
2023-09-30T03:27:49.734Z,99969.04
2023-09-30T03:30:18.504Z,99971.95
2023-09-30T03:32:47.002Z,99975.89
2023-09-30T03:35:18.722Z,99975.70
2023-09-30T03:37:48.516Z,99980.39
2023-09-30T03:40:21.042Z,99980.36
2023-09-30T03:42:52.806Z,99977.44
2023-09-30T03:45:20.924Z,99984.05
2023-09-30T03:47:50.287Z,99982.02
2023-09-30T03:50:18.789Z,99988.75
2023-09-30T03:52:48.251Z,99987.02
2023-09-30T03:55:21.200Z,99991.26
2023-09-30T03:57:52.339Z,99997.52
2023-09-30T04:00:21.983Z,100001.58
2023-09-30T04:02:51.357Z,100004.25
2023-09-30T04:05:25.240Z,99998.39
2023-09-30T04:07:53.275Z,100001.08
2023-09-30T04:10:22.834Z,99996.88
2023-09-30T04:12:50.810Z,99998.29
2023-09-30T04:15:19.505Z,99994.02
2023-09-30T04:17:49.117Z,99993.27
2023-09-30T04:20:17.989Z,99992.64
2023-09-30T04:22:49.589Z,99998.16
2023-09-30T04:25:18.779Z,100002.36
2023-09-30T04:27:50.533Z,100000.39
2023-09-30T04:30:19.222Z,99998.79
2023-09-30T04:32:47.201Z,99998.98
2023-09-30T04:35:16.093Z,100001.69
2023-09-30T04:37:44.763Z,100007.62
2023-09-30T04:40:21.423Z,100010.13
2023-09-30T04:42:49.730Z,100013.27
2023-09-30T04:45:18.316Z,100018.33
2023-09-30T04:47:46.272Z,100015.73
2023-09-30T04:50:17.305Z,100027.63
2023-09-30T04:52:46.847Z,100031.58
2023-09-30T04:55:17.629Z,100033.06
2023-09-30T04:57:47.157Z,100045.09
2023-09-30T05:00:18.248Z,100051.11
2023-09-30T05:02:46.736Z,100057.11
2023-09-30T05:05:15.748Z,100065.17
2023-09-30T05:07:43.849Z,100067.46
2023-09-30T05:10:14.772Z,100069.59
2023-09-30T05:12:47.797Z,100074.44
2023-09-30T05:15:17.754Z,100073.62
2023-09-30T05:17:47.363Z,100072.67
2023-09-30T05:20:18.639Z,100076.86
2023-09-30T05:22:47.860Z,100078.58
2023-09-30T05:25:19.926Z,100081.35
2023-09-30T05:27:50.826Z,100089.42
2023-09-30T05:30:20.780Z,100094.33
2023-09-30T05:32:48.734Z,100095.85
2023-09-30T05:35:17.905Z,100099.78
2023-09-30T05:37:46.441Z,100104.09
2023-09-30T05:40:22.897Z,100105.35
2023-09-30T05:42:51.064Z,100110.93
2023-09-30T05:45:19.118Z,100113.25
2023-09-30T05:47:49.369Z,100114.21
2023-09-30T05:50:24.612Z,100116.67
2023-09-30T05:52:52.865Z,100124.34
2023-09-30T05:55:22.018Z,100127.66
2023-09-30T05:57:51.119Z,100130.08
2023-09-30T06:00:36.039Z,100133.82
2023-09-30T06:03:07.840Z,100133.23
2023-09-30T06:05:41.611Z,100141.71
2023-09-30T06:08:14.844Z,100139.02
2023-09-30T06:10:44.132Z,100140.64
2023-09-30T06:13:12.994Z,100140.15
2023-09-30T06:15:42.595Z,100146.35
2023-09-30T06:18:13.221Z,100149.89
2023-09-30T06:20:41.489Z,100151.14
2023-09-30T06:23:11.014Z,100149.04
2023-09-30T06:25:40.711Z,100155.58
2023-09-30T06:28:09.530Z,100153.73
2023-09-30T06:30:38.273Z,100159.42
2023-09-30T06:33:07.112Z,100164.70
2023-09-30T06:35:38.965Z,100167.12
2023-09-30T06:38:10.052Z,100173.34
2023-09-30T06:40:40.794Z,100175.30
2023-09-30T06:43:09.598Z,100183.98
2023-09-30T06:45:43.065Z,100189.63
2023-09-30T06:48:16.134Z,100187.45
2023-09-30T06:50:49.387Z,100193.41
2023-09-30T06:53:20.408Z,100201.59
2023-09-30T06:55:48.582Z,100195.30
2023-09-30T06:58:21.803Z,100198.60
2023-09-30T07:00:54.670Z,100203.52
2023-09-30T07:03:26.440Z,100209.58
2023-09-30T07:05:55.533Z,100213.80
2023-09-30T07:08:23.798Z,100218.85
2023-09-30T07:10:53.655Z,100230.36
2023-09-30T07:13:22.389Z,100238.61
2023-09-30T07:15:50.691Z,100239.09
2023-09-30T07:18:19.255Z,100251.33
2023-09-30T07:20:47.221Z,100252.49
2023-09-30T07:23:19.709Z,100256.45
2023-09-30T07:25:49.033Z,100258.25
2023-09-30T07:28:17.188Z,100258.22
2023-09-30T07:30:46.329Z,100254.30
2023-09-30T07:33:14.272Z,100262.31
2023-09-30T07:35:42.033Z,100265.68
2023-09-30T07:38:10.288Z,100267.92
2023-09-30T07:40:38.088Z,100272.67
2023-09-30T07:43:05.810Z,100276.95
2023-09-30T07:45:33.583Z,100292.19
2023-09-30T07:48:04.340Z,100288.41
2023-09-30T07:50:32.839Z,100294.86
2023-09-30T07:53:01.797Z,100295.55
2023-09-30T07:55:29.674Z,100297.51
2023-09-30T07:57:58.680Z,100304.95
2023-09-30T08:00:26.662Z,100307.85
2023-09-30T08:02:54.479Z,100310.79
2023-09-30T08:05:23.065Z,100312.65
2023-09-30T08:07:50.807Z,100317.06
2023-09-30T08:10:18.563Z,100327.14
2023-09-30T08:12:52.661Z,100325.83
2023-09-30T08:15:20.455Z,100332.83
2023-09-30T08:17:48.327Z,100324.08
2023-09-30T08:20:16.360Z,100333.02
2023-09-30T08:22:44.143Z,100330.21
2023-09-30T08:25:12.080Z,100329.58
2023-09-30T08:27:40.103Z,100336.61
2023-09-30T08:30:08.870Z,100339.70
2023-09-30T08:32:37.311Z,100333.84
2023-09-30T08:35:05.972Z,100328.17
2023-09-30T08:37:34.653Z,100333.74
2023-09-30T08:40:05.708Z,100336.38
2023-09-30T08:42:35.596Z,100335.23
2023-09-30T08:45:08.388Z,100338.70
2023-09-30T08:47:36.827Z,100337.27
2023-09-30T08:50:09.691Z,100338.15
2023-09-30T08:52:42.252Z,100346.20
2023-09-30T08:55:11.339Z,100349.14
2023-09-30T08:57:42.387Z,100352.36
2023-09-30T09:00:12.637Z,100354.23
2023-09-30T09:02:41.709Z,100358.89
2023-09-30T09:05:10.503Z,100366.51
2023-09-30T09:07:38.366Z,100368.89
2023-09-30T09:10:11.707Z,100373.45
2023-09-30T09:12:40.487Z,100374.59
2023-09-30T09:15:20.802Z,100377.19
2023-09-30T09:17:51.488Z,100381.52
2023-09-30T09:20:24.284Z,100384.90
2023-09-30T09:22:56.382Z,100378.89
2023-09-30T09:25:25.478Z,100379.19
2023-09-30T09:27:55.331Z,100381.67
2023-09-30T09:30:28.479Z,100384.27
2023-09-30T09:33:01.569Z,100389.84
2023-09-30T09:35:31.587Z,100389.30
2023-09-30T09:38:05.559Z,100393.92
2023-09-30T09:40:35.832Z,100406.03
2023-09-30T09:43:05.702Z,100412.13
2023-09-30T09:45:42.147Z,100418.52
2023-09-30T09:48:10.671Z,100422.21
2023-09-30T09:50:39.146Z,100425.87
2023-09-30T09:53:09.994Z,100427.50
2023-09-30T09:55:40.226Z,100430.63
2023-09-30T09:58:11.403Z,100439.39
2023-09-30T10:00:39.761Z,100443.15
2023-09-30T10:03:07.831Z,100450.11
2023-09-30T10:05:36.044Z,100446.92
2023-09-30T10:08:12.271Z,100446.29
2023-09-30T10:10:41.126Z,100448.09
2023-09-30T10:13:08.877Z,100445.41
2023-09-30T10:15:40.818Z,100440.71
2023-09-30T10:18:15.079Z,100446.90
2023-09-30T10:20:46.521Z,100458.75
2023-09-30T10:23:23.107Z,100446.61
2023-09-30T10:25:56.298Z,100459.91
2023-09-30T10:28:40.200Z,100453.89
2023-09-30T10:31:13.783Z,100453.77
2023-09-30T10:34:00.875Z,100451.20
2023-09-30T10:36:29.273Z,100456.07
2023-09-30T10:38:57.558Z,100457.48
2023-09-30T10:41:52.127Z,100459.48
2023-09-30T10:44:26.350Z,100466.50
2023-09-30T10:47:21.997Z,100466.06
2023-09-30T10:49:49.910Z,100470.09
2023-09-30T10:52:24.762Z,100472.50
2023-09-30T10:54:52.584Z,100470.44
2023-09-30T10:57:37.150Z,100476.09
2023-09-30T11:00:12.267Z,100469.70
2023-09-30T11:03:00.717Z,100474.41
2023-09-30T11:05:52.568Z,100478.39
2023-09-30T11:08:22.995Z,100480.21
2023-09-30T11:10:52.476Z,100481.80
2023-09-30T11:13:21.383Z,100476.61
2023-09-30T11:16:01.607Z,100480.66
2023-09-30T11:18:30.582Z,100489.66
2023-09-30T11:21:15.284Z,100499.48
2023-09-30T11:23:43.167Z,100489.45
2023-09-30T11:26:10.941Z,100487.28
2023-09-30T11:28:40.726Z,100485.92
2023-09-30T11:31:19.242Z,100486.34
2023-09-30T11:33:50.944Z,100491.91
2023-09-30T11:36:25.418Z,100495.64
2023-09-30T11:38:56.809Z,100496.66
2023-09-30T11:41:34.168Z,100493.77
2023-09-30T11:44:12.352Z,100499.39
2023-09-30T11:46:59.116Z,100494.57
2023-09-30T11:49:41.604Z,100496.27
2023-09-30T11:52:12.325Z,100484.56
2023-09-30T11:54:45.225Z,100488.21
2023-09-30T11:57:19.169Z,100488.86
2023-09-30T11:59:48.128Z,100489.35
2023-09-30T12:02:18.683Z,100485.63
2023-09-30T12:04:50.649Z,100488.73
2023-09-30T12:07:18.592Z,100480.38
2023-09-30T12:09:46.355Z,100482.02
2023-09-30T12:12:15.896Z,100486.05
2023-09-30T12:14:44.426Z,100482.04
2023-09-30T12:17:13.624Z,100481.55
2023-09-30T12:19:43.128Z,100492.23
2023-09-30T12:22:12.214Z,100487.01
2023-09-30T12:24:43.269Z,100492.55
2023-09-30T12:27:11.026Z,100496.63
2023-09-30T12:29:39.692Z,100493.61
2023-09-30T12:32:08.049Z,100493.65
2023-09-30T12:34:36.897Z,100493.84
2023-09-30T12:37:04.904Z,100495.92
2023-09-30T12:39:34.665Z,100499.40
2023-09-30T12:42:04.245Z,100491.61
2023-09-30T12:44:31.966Z,100503.76
2023-09-30T12:47:00.003Z,100501.13
2023-09-30T12:49:27.762Z,100504.06
2023-09-30T12:51:55.611Z,100505.96
2023-09-30T12:54:24.224Z,100498.41
2023-09-30T12:56:52.643Z,100495.66
2023-09-30T12:59:20.949Z,100502.65
2023-09-30T13:01:49.747Z,100497.96
2023-09-30T13:04:17.721Z,100493.56
2023-09-30T13:06:46.322Z,100496.50
2023-09-30T13:09:14.226Z,100489.34
2023-09-30T13:11:42.785Z,100489.65
2023-09-30T13:14:11.432Z,100497.59
2023-09-30T13:16:39.606Z,100493.23
2023-09-30T13:19:07.429Z,100492.37
2023-09-30T13:21:35.173Z,100492.14
2023-09-30T13:24:03.016Z,100496.70
2023-09-30T13:26:31.308Z,100493.77
2023-09-30T13:28:59.506Z,100490.43
2023-09-30T13:31:27.494Z,100494.53
2023-09-30T13:33:55.301Z,100492.01
2023-09-30T13:36:23.137Z,100487.49
2023-09-30T13:38:50.885Z,100493.47
2023-09-30T13:41:18.627Z,100483.16
2023-09-30T13:43:46.494Z,100487.16
2023-09-30T13:46:14.413Z,100491.98
2023-09-30T13:48:42.930Z,100490.27
2023-09-30T13:51:14.488Z,100486.95
2023-09-30T13:53:44.149Z,100481.06
2023-09-30T13:56:12.673Z,100481.61
2023-09-30T13:58:40.486Z,100484.58
2023-09-30T14:01:08.479Z,100481.59
2023-09-30T14:03:36.521Z,100478.63
2023-09-30T14:06:16.108Z,100477.23
2023-09-30T14:08:43.897Z,100477.81
2023-09-30T14:11:13.157Z,100477.36
2023-09-30T14:13:40.928Z,100480.92
2023-09-30T14:16:08.760Z,100483.67
2023-09-30T14:18:37.616Z,100474.98
2023-09-30T14:21:06.050Z,100480.20
2023-09-30T14:23:34.062Z,100481.00
2023-09-30T14:26:05.487Z,100485.13
2023-09-30T14:28:33.207Z,100482.04
2023-09-30T14:31:05.139Z,100484.94
2023-09-30T14:33:33.206Z,100490.23
2023-09-30T14:36:00.969Z,100481.77
2023-09-30T14:38:28.709Z,100480.17
2023-09-30T14:40:56.566Z,100479.08
2023-09-30T14:43:24.396Z,100473.13
2023-09-30T14:45:52.458Z,100477.34
2023-09-30T14:48:20.222Z,100478.59
2023-09-30T14:50:52.339Z,100480.35
2023-09-30T14:53:20.854Z,100489.02
2023-09-30T14:55:48.597Z,100487.81
2023-09-30T14:58:16.367Z,100488.96
2023-09-30T15:00:44.666Z,100497.88
2023-09-30T15:03:12.717Z,100510.81
2023-09-30T15:05:40.725Z,100515.11
2023-09-30T15:08:11.518Z,100507.95
2023-09-30T15:10:39.279Z,100502.67
2023-09-30T15:13:07.068Z,100498.27
2023-09-30T15:15:38.393Z,100495.82
2023-09-30T15:18:07.514Z,100504.05
2023-09-30T15:20:41.324Z,100499.08
2023-09-30T15:23:09.169Z,100498.40
2023-09-30T15:25:45.119Z,100498.27
2023-09-30T15:28:14.602Z,100496.13
2023-09-30T15:30:42.436Z,100494.66
2023-09-30T15:33:10.265Z,100495.67
2023-09-30T15:35:38.062Z,100506.52
2023-09-30T15:38:05.924Z,100506.64
2023-09-30T15:41:02.519Z,100517.73
2023-09-30T15:43:31.508Z,100507.73
2023-09-30T15:46:00.577Z,100505.42
2023-09-30T15:48:29.630Z,100506.89
2023-09-30T15:50:57.720Z,100514.06
2023-09-30T15:53:25.737Z,100513.01
2023-09-30T15:55:53.836Z,100509.92
2023-09-30T15:58:21.635Z,100519.00
2023-09-30T16:00:49.809Z,100520.56
2023-09-30T16:03:17.881Z,100524.77
2023-09-30T16:05:47.010Z,100524.63
2023-09-30T16:08:14.835Z,100529.41
2023-09-30T16:10:44.894Z,100535.21
2023-09-30T16:13:12.692Z,100539.59
2023-09-30T16:15:42.525Z,100551.27
2023-09-30T16:18:11.049Z,100562.98
2023-09-30T16:20:39.422Z,100564.15
2023-09-30T16:23:07.293Z,100563.16
2023-09-30T16:25:36.281Z,100560.16
2023-09-30T16:28:05.414Z,100565.59
2023-09-30T16:30:33.445Z,100564.98
2023-09-30T16:33:01.332Z,100561.14
2023-09-30T16:35:29.126Z,100573.08
2023-09-30T16:37:58.056Z,100574.33
2023-09-30T16:40:25.839Z,100575.56
2023-09-30T16:42:53.786Z,100574.12
2023-09-30T16:45:22.416Z,100576.56
2023-09-30T16:47:51.028Z,100574.63
2023-09-30T16:50:18.756Z,100576.29
2023-09-30T16:52:47.221Z,100578.53
2023-09-30T16:55:15.057Z,100575.73
2023-09-30T16:57:42.843Z,100579.16
2023-09-30T17:00:12.055Z,100580.38
2023-09-30T17:02:39.857Z,100583.41
2023-09-30T17:05:08.914Z,100594.46
2023-09-30T17:07:36.857Z,100591.41
2023-09-30T17:10:06.293Z,100594.19
2023-09-30T17:12:34.068Z,100598.54
2023-09-30T17:15:06.478Z,100596.90
2023-09-30T17:17:34.553Z,100598.57
2023-09-30T17:20:08.454Z,100600.06
2023-09-30T17:22:36.600Z,100596.06
2023-09-30T17:25:05.308Z,100598.83
2023-09-30T17:27:33.176Z,100598.62
2023-09-30T17:30:01.085Z,100596.92
2023-09-30T17:32:28.874Z,100595.73
2023-09-30T17:34:56.717Z,100594.63
2023-09-30T17:37:24.577Z,100594.40
2023-09-30T17:39:52.700Z,100598.02
2023-09-30T17:42:20.829Z,100595.36
2023-09-30T17:44:49.082Z,100599.98
2023-09-30T17:47:16.945Z,100597.16
2023-09-30T17:49:45.059Z,100595.22
2023-09-30T17:52:12.760Z,100599.21
2023-09-30T17:54:40.603Z,100595.72
2023-09-30T17:57:08.495Z,100603.33
2023-09-30T17:59:36.857Z,100603.79
2023-09-30T18:02:05.044Z,100601.22
2023-09-30T18:04:33.177Z,100598.27
2023-09-30T18:07:01.145Z,100598.13
2023-09-30T18:09:29.786Z,100603.02
2023-09-30T18:11:57.552Z,100606.64
2023-09-30T18:14:25.331Z,100607.31
2023-09-30T18:16:53.120Z,100611.35
2023-09-30T18:19:22.010Z,100612.04
2023-09-30T18:21:50.216Z,100609.66
2023-09-30T18:24:17.967Z,100608.70
2023-09-30T18:26:46.160Z,100607.13
2023-09-30T18:29:13.874Z,100609.73
2023-09-30T18:31:41.666Z,100609.45
2023-09-30T18:34:09.550Z,100613.16
2023-09-30T18:36:37.384Z,100615.42
2023-09-30T18:39:22.833Z,100615.70
2023-09-30T18:41:53.311Z,100624.20
2023-09-30T18:44:21.143Z,100629.41
2023-09-30T18:46:52.348Z,100637.85
2023-09-30T18:49:20.736Z,100643.35
2023-09-30T18:51:51.513Z,100643.52
2023-09-30T18:54:19.501Z,100648.45
2023-09-30T18:56:47.587Z,100653.27
2023-09-30T18:59:21.526Z,100649.77
2023-09-30T19:01:50.039Z,100647.76
2023-09-30T19:04:19.160Z,100652.29
2023-09-30T19:06:47.413Z,100656.75
2023-09-30T19:09:15.705Z,100659.28
2023-09-30T19:11:45.652Z,100656.94
2023-09-30T19:14:14.627Z,100654.09
2023-09-30T19:16:46.034Z,100656.77
2023-09-30T19:19:13.953Z,100657.41
2023-09-30T19:21:41.793Z,100658.17
2023-09-30T19:24:10.079Z,100660.98
2023-09-30T19:26:37.964Z,100659.91
2023-09-30T19:29:05.716Z,100662.52
2023-09-30T19:31:33.574Z,100661.17
2023-09-30T19:34:02.412Z,100664.19
2023-09-30T19:36:30.190Z,100660.79
2023-09-30T19:38:57.960Z,100660.38
2023-09-30T19:41:25.826Z,100663.95
2023-09-30T19:43:53.609Z,100665.09
2023-09-30T19:46:21.447Z,100670.67
2023-09-30T19:48:49.730Z,100666.79
2023-09-30T19:51:25.559Z,100661.02
2023-09-30T19:53:53.468Z,100659.78
2023-09-30T19:56:21.257Z,100661.39
2023-09-30T19:58:49.702Z,100661.50
2023-09-30T20:01:20.740Z,100660.91
2023-09-30T20:03:49.214Z,100665.90
2023-09-30T20:06:22.217Z,100670.15
2023-09-30T20:08:51.475Z,100669.94
2023-09-30T20:11:25.077Z,100669.08
2023-09-30T20:13:53.594Z,100667.38
2023-09-30T20:16:21.929Z,100663.64
2023-09-30T20:18:50.032Z,100666.04
2023-09-30T20:21:18.229Z,100666.30
2023-09-30T20:23:46.054Z,100666.23
2023-09-30T20:26:19.195Z,100672.16
2023-09-30T20:28:47.027Z,100673.17
2023-09-30T20:31:14.885Z,100670.64
2023-09-30T20:33:44.622Z,100672.92
2023-09-30T20:36:13.420Z,100676.05
2023-09-30T20:38:41.518Z,100674.55
2023-09-30T20:41:12.651Z,100677.33
2023-09-30T20:43:42.153Z,100684.04
2023-09-30T20:46:10.585Z,100685.16
2023-09-30T20:48:38.714Z,100688.34
2023-09-30T20:51:08.315Z,100690.15
2023-09-30T20:53:37.614Z,100688.30
2023-09-30T20:56:12.529Z,100683.73
2023-09-30T20:58:40.636Z,100680.41
2023-09-30T21:01:13.103Z,100675.05
2023-09-30T21:03:41.966Z,100677.46
2023-09-30T21:06:10.533Z,100680.54
2023-09-30T21:08:39.401Z,100675.85
2023-09-30T21:11:08.208Z,100679.20
2023-09-30T21:13:36.221Z,100681.75
2023-09-30T21:16:04.878Z,100678.23
2023-09-30T21:18:36.429Z,100676.91
2023-09-30T21:21:04.395Z,100677.27
2023-09-30T21:23:32.319Z,100676.66
2023-09-30T21:26:00.261Z,100676.87
2023-09-30T21:28:27.980Z,100678.14
2023-09-30T21:30:55.929Z,100677.47
2023-09-30T21:33:23.875Z,100676.74
2023-09-30T21:35:58.303Z,100677.52
2023-09-30T21:38:26.756Z,100676.80
2023-09-30T21:40:54.834Z,100672.20
2023-09-30T21:43:22.945Z,100672.31
2023-09-30T21:45:50.854Z,100668.45
2023-09-30T21:48:18.656Z,100668.45
2023-09-30T21:50:46.682Z,100669.10
2023-09-30T21:53:16.034Z,100668.85
2023-09-30T21:55:43.830Z,100671.65
2023-09-30T21:58:11.732Z,100674.48
2023-09-30T22:00:40.132Z,100675.44
2023-09-30T22:03:10.179Z,100677.65
2023-09-30T22:05:47.249Z,100682.35
2023-09-30T22:08:14.942Z,100686.88
2023-09-30T22:10:43.330Z,100683.78
2023-09-30T22:13:12.193Z,100678.87
2023-09-30T22:15:42.934Z,100680.77
2023-09-30T22:18:14.223Z,100681.10
2023-09-30T22:20:42.215Z,100677.88
2023-09-30T22:23:10.495Z,100674.27
2023-09-30T22:25:41.826Z,100675.21
2023-09-30T22:28:09.704Z,100676.98
2023-09-30T22:30:37.879Z,100675.91
2023-09-30T22:33:07.208Z,100678.31
2023-09-30T22:35:36.190Z,100672.80
2023-09-30T22:38:04.434Z,100674.85
2023-09-30T22:40:32.210Z,100680.27
2023-09-30T22:43:00.218Z,100680.90
2023-09-30T22:45:29.937Z,100681.13
2023-09-30T22:47:58.258Z,100681.84
2023-09-30T22:50:27.032Z,100674.54
2023-09-30T22:52:56.263Z,100673.68
2023-09-30T22:55:24.781Z,100672.75
2023-09-30T22:57:54.776Z,100671.70
2023-09-30T23:00:28.605Z,100672.89
2023-09-30T23:02:57.024Z,100671.25
2023-09-30T23:05:28.427Z,100672.95
2023-09-30T23:07:56.435Z,100671.77
2023-09-30T23:10:24.521Z,100671.68
2023-09-30T23:12:52.378Z,100673.60
2023-09-30T23:15:21.513Z,100672.81
2023-09-30T23:17:50.251Z,100673.79
2023-09-30T23:20:23.193Z,100669.70
2023-09-30T23:22:53.567Z,100669.98
2023-09-30T23:25:38.963Z,100670.33
2023-09-30T23:28:08.213Z,100666.14
2023-09-30T23:30:36.157Z,100660.08
2023-09-30T23:33:06.388Z,100656.07
2023-09-30T23:35:35.865Z,100660.94
2023-09-30T23:38:04.324Z,100663.13
2023-09-30T23:40:34.592Z,100663.66
2023-09-30T23:43:03.741Z,100667.86
2023-09-30T23:45:38.334Z,100670.16
2023-09-30T23:48:09.144Z,100663.79
2023-09-30T23:50:38.471Z,100659.01
2023-09-30T23:53:07.124Z,100652.48
2023-09-30T23:55:36.545Z,100646.99
2023-09-30T23:58:06.227Z,100647.94
